Time;durP1;ratioP1;P1;durP2;ratioP2;P2;SDS_P1;SDS_P2;PMS_P1;PMS_P2;Temp;Humidity;BMP_temperature;BMP_pressure;BME280_temperature;BME280_humidity;BME280_pressure;Samples;Min_cycle;Max_cycle;Signal;HPM_P1;HPM_P2
2022/06/29 00:01:08;;;;;;;;;18.60;18.60;;;;;27.66;43.90;99318.69;5088657;28;8924;-73
2022/06/29 00:03:37;;;;;;;;;26.50;23.50;;;;;27.65;44.35;99316.97;5070347;28;9035;-73
2022/06/29 00:06:06;;;;;;;;;20.80;19.60;;;;;27.61;43.83;99319.84;5088876;28;8969;-73
2022/06/29 00:08:35;;;;;;;;;23.50;23.00;;;;;27.51;44.24;99318.84;5089260;28;9762;-73
2022/06/29 00:11:04;;;;;;;;;18.40;18.40;;;;;27.50;43.84;99311.75;5089116;28;8990;-73
2022/06/29 00:13:32;;;;;;;;;18.60;18.60;;;;;27.53;43.08;99299.97;5089081;28;8890;-73
2022/06/29 00:16:01;;;;;;;;;18.40;17.40;;;;;27.51;43.02;99305.44;5088780;28;8835;-73
2022/06/29 00:18:31;;;;;;;;;22.00;20.20;;;;;27.59;43.75;99305.72;5088529;28;8848;-73
2022/06/29 00:21:00;;;;;;;;;17.40;16.80;;;;;27.56;43.16;99310.44;5088951;28;9629;-74
2022/06/29 00:23:28;;;;;;;;;18.40;17.60;;;;;27.56;43.27;99305.09;5089323;28;8860;-71
2022/06/29 00:25:57;;;;;;;;;18.20;15.60;;;;;27.63;42.76;99292.09;5088750;28;8958;-74
2022/06/29 00:28:25;;;;;;;;;19.00;16.40;;;;;27.60;43.10;99287.84;5070402;28;8873;-72
2022/06/29 00:30:54;;;;;;;;;16.80;16.80;;;;;27.70;42.90;99290.69;5088980;28;9615;-73
2022/06/29 00:33:23;;;;;;;;;20.80;20.00;;;;;27.71;42.98;99292.38;5089721;28;8856;-73
2022/06/29 00:35:52;;;;;;;;;18.00;18.00;;;;;27.72;43.39;99294.09;5108832;28;9582;-75
2022/06/29 00:38:21;;;;;;;;;20.80;19.20;;;;;27.67;43.42;99285.53;5109218;28;8833;-73
2022/06/29 00:40:50;;;;;;;;;18.80;18.60;;;;;27.72;43.82;99289.56;5088140;28;8870;-73
2022/06/29 00:43:18;;;;;;;;;19.80;19.80;;;;;27.85;44.17;99288.66;5089136;28;8876;-73
2022/06/29 00:45:46;;;;;;;;;20.40;18.40;;;;;27.90;44.11;99289.16;5088959;28;8836;-73
2022/06/29 00:48:15;;;;;;;;;19.20;18.80;;;;;27.97;43.93;99288.59;5087582;28;8844;-73
2022/06/29 00:50:46;;;;;;;;;18.50;18.50;;;;;28.02;43.88;99287.41;5088607;28;8859;-73
2022/06/29 00:53:17;;;;;;;;;21.80;17.80;;;;;28.03;44.17;99289.09;5088545;28;8870;-73
2022/06/29 00:55:48;;;;;;;;;20.00;20.00;;;;;28.03;44.20;99292.63;5089076;28;8859;-75
2022/06/29 00:58:21;;;;;;;;;21.60;21.60;;;;;28.04;44.25;99293.50;5088320;28;9072;-74
2022/06/29 01:00:50;;;;;;;;;22.80;21.40;;;;;27.98;44.32;99292.13;5088026;28;8897;-73
2022/06/29 01:03:19;;;;;;;;;18.40;18.40;;;;;27.69;44.64;99284.44;5088375;28;8851;-73
2022/06/29 01:05:48;;;;;;;;;18.40;17.60;;;;;27.49;44.29;99285.97;5088174;28;8998;-73
2022/06/29 01:08:18;;;;;;;;;14.20;14.20;;;;;27.35;43.96;99278.97;5088149;28;8936;-73
2022/06/29 01:10:47;;;;;;;;;18.00;17.00;;;;;27.37;43.89;99278.81;5087143;28;8852;-73
2022/06/29 01:13:15;;;;;;;;;17.40;16.60;;;;;27.40;45.42;99273.25;5088106;28;8855;-73
2022/06/29 01:15:44;;;;;;;;;20.40;19.40;;;;;27.43;45.50;99273.03;5068927;28;8844;-72
2022/06/29 01:18:12;;;;;;;;;18.60;18.20;;;;;27.42;45.85;99265.97;5088090;28;9527;-74
2022/06/29 01:20:41;;;;;;;;;20.50;19.00;;;;;27.44;45.35;99269.38;5053029;28;8828;-74
2022/06/29 01:23:11;;;;;;;;;23.40;22.80;;;;;27.45;45.47;99265.75;5104787;28;8849;-74
2022/06/29 01:25:40;;;;;;;;;22.50;20.00;;;;;27.44;45.96;99245.28;5091441;28;8970;-74
2022/06/29 01:28:08;;;;;;;;;19.80;18.60;;;;;27.42;43.57;99247.22;5088028;28;8847;-74
2022/06/29 01:30:37;;;;;;;;;22.60;20.40;;;;;27.44;44.46;99252.47;5088102;28;8844;-73
2022/06/29 01:33:06;;;;;;;;;20.00;19.80;;;;;27.47;45.13;99241.50;5087950;28;8871;-73
2022/06/29 01:35:34;;;;;;;;;19.50;19.25;;;;;27.50;45.05;99242.13;5086519;28;8983;-73
2022/06/29 01:38:03;;;;;;;;;16.60;16.60;;;;;27.50;45.47;99242.13;5052715;28;8843;-73
2022/06/29 01:40:33;;;;;;;;;18.00;18.00;;;;;27.52;44.92;99242.00;5060734;28;8848;-73
2022/06/29 01:43:01;;;;;;;;;20.40;19.40;;;;;27.50;44.89;99243.94;5085649;28;9601;-72
2022/06/29 01:45:30;;;;;;;;;20.60;20.60;;;;;27.50;45.81;99235.91;5052802;28;8855;-73
2022/06/29 01:47:59;;;;;;;;;23.00;21.00;;;;;27.47;45.99;99234.34;5088141;28;8863;-74
2022/06/29 01:50:27;;;;;;;;;23.00;21.25;;;;;27.44;45.75;99234.56;5087725;28;9796;-72
2022/06/29 01:52:56;;;;;;;;;20.25;17.75;;;;;27.43;45.80;99227.50;5052325;28;8836;-72
2022/06/29 01:55:24;;;;;;;;;21.25;21.25;;;;;27.42;46.15;99223.09;5071610;28;8867;-73
2022/06/29 01:57:54;;;;;;;;;22.00;20.60;;;;;27.40;46.26;99225.06;5087682;28;8871;-73
2022/06/29 02:00:23;;;;;;;;;21.80;21.80;;;;;27.36;46.10;99232.47;5086173;28;8836;-75
2022/06/29 02:02:51;;;;;;;;;23.00;21.80;;;;;27.35;46.87;99233.44;5087873;28;9692;-72
2022/06/29 02:05:20;;;;;;;;;18.60;17.80;;;;;27.31;46.94;99221.22;5051850;28;8917;-72
2022/06/29 02:07:48;;;;;;;;;21.00;21.00;;;;;27.30;47.49;99222.22;5087856;28;8867;-72
2022/06/29 02:10:17;;;;;;;;;20.00;20.00;;;;;27.29;46.93;99228.53;5087085;28;8844;-74
2022/06/29 02:12:45;;;;;;;;;18.60;18.00;;;;;27.25;45.47;99221.69;5102250;28;8845;-73
2022/06/29 02:15:15;;;;;;;;;16.40;15.80;;;;;27.25;44.89;99223.50;5111397;28;8933;-73
2022/06/29 02:17:44;;;;;;;;;17.60;16.40;;;;;27.25;44.38;99242.25;5111784;28;8849;-73
2022/06/29 02:20:12;;;;;;;;;19.75;18.50;;;;;27.25;45.76;99242.25;5088315;28;8954;-74
2022/06/29 02:22:41;;;;;;;;;17.00;17.00;;;;;27.25;44.48;99242.25;5055000;28;8896;-73
2022/06/29 02:25:10;;;;;;;;;21.00;21.00;;;;;27.25;46.30;99244.91;5088687;28;8858;-76
2022/06/29 02:27:40;;;;;;;;;17.20;16.80;;;;;27.21;44.70;99245.13;5071613;28;8956;-76
2022/06/29 02:30:11;;;;;;;;;20.40;18.40;;;;;27.16;45.54;99246.44;5068251;28;8860;-73
2022/06/29 02:35:27;;;;;;;;;21.00;20.75;;;;;26.96;47.57;99246.09;5067998;28;8856;-72
2022/06/29 02:37:55;;;;;;;;;18.60;18.60;;;;;26.95;46.88;99246.22;5089064;28;8861;-71
2022/06/29 02:40:24;;;;;;;;;21.20;21.20;;;;;26.93;46.88;99245.47;5088682;28;8923;-73
2022/06/29 02:42:53;;;;;;;;;19.00;17.80;;;;;26.94;46.45;99241.84;5088332;28;8842;-72
2022/06/29 02:45:30;;;;;;;;;20.80;20.80;;;;;26.68;46.91;99241.91;5070132;28;8857;-72
2022/06/29 02:48:00;;;;;;;;;18.00;16.20;;;;;26.70;46.95;99239.13;5087945;28;8846;-72
2022/06/29 02:50:29;;;;;;;;;18.00;17.40;;;;;26.69;46.76;99243.59;5090410;28;8849;-72
2022/06/29 02:52:58;;;;;;;;;15.20;15.00;;;;;26.71;46.57;99243.50;5093489;27;8857;-71
2022/06/29 02:55:26;;;;;;;;;16.40;16.40;;;;;26.69;46.09;99248.94;5129019;27;8833;-72
2022/06/29 02:57:55;;;;;;;;;24.00;21.60;;;;;26.56;47.01;99248.09;5128843;27;8869;-71
2022/06/29 03:00:24;;;;;;;;;22.00;21.40;;;;;26.31;47.94;99246.31;5128611;27;8877;-73
2022/06/29 03:02:53;;;;;;;;;20.00;18.80;;;;;26.38;46.90;99244.91;5103730;28;8839;-71
2022/06/29 03:05:23;;;;;;;;;16.60;16.20;;;;;26.45;46.28;99236.34;5108057;28;9085;-74
2022/06/29 03:07:51;;;;;;;;;20.00;18.40;;;;;26.45;46.42;99230.16;5099153;28;8864;-72
2022/06/29 03:10:20;;;;;;;;;14.00;13.40;;;;;26.48;45.24;99234.41;5090131;28;8843;-73
2022/06/29 03:12:48;;;;;;;;;14.60;13.60;;;;;26.51;44.75;99236.88;5090309;28;8852;-72
2022/06/29 03:15:18;;;;;;;;;19.20;17.80;;;;;26.44;45.85;99237.31;5090498;28;8840;-74
2022/06/29 03:17:46;;;;;;;;;15.60;15.20;;;;;26.24;45.98;99232.53;5092074;28;8857;-72
2022/06/29 03:20:16;;;;;;;;;20.60;20.60;;;;;25.97;47.89;99233.47;5091484;28;8878;-71
2022/06/29 03:22:46;;;;;;;;;20.40;20.20;;;;;25.81;48.06;99230.16;5088831;28;8871;-71
2022/06/29 03:25:16;;;;;;;;;16.60;16.00;;;;;25.83;48.09;99231.75;5089477;28;8824;-72
2022/06/29 03:27:45;;;;;;;;;21.00;19.00;;;;;25.95;47.88;99229.22;5090099;28;9651;-71
2022/06/29 03:30:13;;;;;;;;;15.60;15.60;;;;;26.04;47.58;99229.44;5090204;28;8871;-74
2022/06/29 03:32:42;;;;;;;;;20.20;19.80;;;;;26.14;47.47;99221.63;5089445;28;8859;-73
2022/06/29 03:35:10;;;;;;;;;39.25;34.25;;;;;26.25;47.30;99223.53;5080856;28;8974;-73
2022/06/29 03:37:39;;;;;;;;;27.25;27.00;;;;;26.39;44.65;99214.53;5108357;28;8904;-72
2022/06/29 03:40:11;;;;;;;;;11.00;11.00;;;;;26.55;42.78;99220.50;5109962;28;8837;-71
2022/06/29 03:42:39;;;;;;;;;13.00;11.60;;;;;26.66;41.86;99222.44;5074561;28;8888;-73
2022/06/29 03:45:09;;;;;;;;;10.40;10.40;;;;;26.73;41.76;99218.34;5109691;28;9599;-73
2022/06/29 03:47:38;;;;;;;;;15.20;14.40;;;;;26.88;41.29;99221.75;5109686;28;8887;-71
2022/06/29 03:50:08;;;;;;;;;13.60;12.60;;;;;26.96;41.48;99215.81;5109621;28;8845;-73
2022/06/29 03:52:37;;;;;;;;;18.80;13.80;;;;;27.09;41.38;99221.09;5108621;27;8888;-72
2022/06/29 03:55:07;;;;;;;;;12.20;12.00;;;;;27.16;41.54;99217.84;5109403;28;8849;-72
2022/06/29 03:57:36;;;;;;;;;11.20;11.20;;;;;27.23;41.16;99213.75;5103768;28;8888;-71
2022/06/29 04:00:06;;;;;;;;;11.00;11.00;;;;;27.33;40.58;99219.28;5069763;28;8843;-71
2022/06/29 04:02:44;;;;;;;;;10.20;10.20;;;;;27.49;40.15;99218.16;5088951;28;8859;-74
2022/06/29 04:05:13;;;;;;;;;14.00;13.00;;;;;27.60;40.38;99221.72;5089097;28;8831;-73
2022/06/29 04:07:42;;;;;;;;;13.80;12.00;;;;;27.77;39.54;99214.22;5087299;28;8965;-73
2022/06/29 04:10:10;;;;;;;;;11.40;10.60;;;;;27.90;39.08;99206.09;5088873;28;8887;-71
2022/06/29 04:12:40;;;;;;;;;15.80;15.80;;;;;28.03;38.98;99206.00;5088970;28;8856;-72
2022/06/29 04:15:10;;;;;;;;;13.80;13.80;;;;;28.12;38.52;99206.13;5088720;28;8886;-71
2022/06/29 04:17:38;;;;;;;;;10.80;10.80;;;;;28.21;38.35;99209.06;5088803;28;8856;-73
2022/06/29 04:20:08;;;;;;;;;10.40;10.40;;;;;28.28;38.23;99199.53;5101447;28;8856;-73
2022/06/29 04:22:36;;;;;;;;;13.00;12.00;;;;;28.30;38.53;99198.44;5073648;28;8883;-72
2022/06/29 04:25:05;;;;;;;;;11.60;11.60;;;;;28.32;38.63;99196.50;5107766;27;8845;-72
2022/06/29 04:27:34;;;;;;;;;14.40;13.00;;;;;28.32;38.77;99198.34;5053409;28;8892;-73
2022/06/29 04:30:04;;;;;;;;;19.60;19.60;;;;;28.34;38.35;99204.44;5088515;28;8855;-73
2022/06/29 04:32:32;;;;;;;;;10.60;10.60;;;;;28.42;37.86;99207.34;5088729;28;8839;-72
2022/06/29 04:35:01;;;;;;;;;13.40;11.80;;;;;28.53;37.46;99210.03;5087198;28;8856;-73
2022/06/29 04:37:29;;;;;;;;;17.20;17.20;;;;;28.64;37.02;99211.88;5087298;28;9613;-74
2022/06/29 04:40:00;;;;;;;;;11.20;11.20;;;;;28.75;37.20;99209.16;5088245;28;8890;-72
2022/06/29 04:42:29;;;;;;;;;14.00;12.60;;;;;28.78;37.18;99206.22;5087791;27;8877;-73
2022/06/29 04:44:57;;;;;;;;;11.00;11.00;;;;;28.87;37.01;99198.41;5108385;28;9656;-71
2022/06/29 04:47:28;;;;;;;;;13.60;12.60;;;;;28.92;37.23;99197.03;5108516;28;8882;-74
2022/06/29 04:49:56;;;;;;;;;13.20;11.60;;;;;29.01;37.23;99195.41;5108661;28;8963;-76
2022/06/29 04:52:25;;;;;;;;;12.40;10.60;;;;;29.13;37.12;99202.50;5102505;28;8920;-71
2022/06/29 04:54:55;;;;;;;;;11.80;11.80;;;;;29.27;36.92;99206.69;5088239;28;8863;-72
2022/06/29 04:57:23;;;;;;;;;12.80;11.40;;;;;29.45;36.58;99201.63;5087935;27;8890;-72
2022/06/29 04:59:52;;;;;;;;;8.20;8.20;;;;;29.58;36.32;99205.94;5088285;28;8848;-72
2022/06/29 05:02:20;;;;;;;;;13.00;11.00;;;;;29.68;36.15;99198.78;5087564;28;8977;-73
2022/06/29 05:04:51;;;;;;;;;12.40;12.40;;;;;29.79;35.70;99197.91;5087914;28;8859;-73
2022/06/29 05:07:19;;;;;;;;;12.60;12.60;;;;;29.86;35.61;99199.09;5100921;28;8929;-73
2022/06/29 05:09:50;;;;;;;;;12.80;11.80;;;;;29.90;35.43;99205.91;5107777;28;8983;-72
2022/06/29 05:12:18;;;;;;;;;11.60;11.60;;;;;29.98;35.01;99218.69;5104285;27;8837;-73
2022/06/29 05:14:46;;;;;;;;;13.60;12.20;;;;;29.99;34.60;99210.47;5099404;28;8880;-72
2022/06/29 05:17:15;;;;;;;;;10.20;10.20;;;;;30.07;35.18;99207.97;5107524;28;8860;-72
2022/06/29 05:19:43;;;;;;;;;11.20;10.00;;;;;30.15;35.13;99214.50;5107555;28;8852;-72
2022/06/29 05:22:13;;;;;;;;;13.60;13.20;;;;;30.15;35.33;99219.91;5107391;28;8936;-72
2022/06/29 05:24:42;;;;;;;;;12.20;12.20;;;;;30.17;35.37;99228.69;5107423;28;8933;-71
2022/06/29 05:27:10;;;;;;;;;12.60;12.60;;;;;30.22;35.43;99231.81;5107521;28;8875;-74
2022/06/29 05:29:39;;;;;;;;;13.60;13.00;;;;;30.19;35.27;99221.31;5105318;28;8875;-74
2022/06/29 05:32:09;;;;;;;;;12.00;11.60;;;;;30.20;35.58;99225.72;5084918;28;8967;-71
2022/06/29 05:34:38;;;;;;;;;15.80;14.00;;;;;30.19;35.47;99222.19;5107047;28;8833;-73
2022/06/29 05:37:06;;;;;;;;;10.80;10.20;;;;;30.18;36.22;99227.72;5107542;28;8872;-73
2022/06/29 05:39:37;;;;;;;;;11.20;11.20;;;;;30.16;36.49;99227.00;5106380;28;8853;-71
2022/06/29 05:42:06;;;;;;;;;11.60;11.60;;;;;30.13;36.68;99225.41;5104709;28;8908;-71
2022/06/29 05:44:34;;;;;;;;;14.20;12.80;;;;;30.06;36.60;99224.25;5101417;28;8867;-72
2022/06/29 05:47:04;;;;;;;;;14.75;13.00;;;;;29.99;36.71;99223.09;5091614;28;9712;-72
2022/06/29 05:49:33;;;;;;;;;11.80;11.80;;;;;29.83;37.01;99219.03;5111249;28;8894;-72
2022/06/29 05:52:01;;;;;;;;;13.00;13.00;;;;;29.88;37.18;99224.84;5111185;28;8849;-74
2022/06/29 05:54:30;;;;;;;;;11.80;10.80;;;;;29.89;37.13;99221.19;5108427;28;8852;-73
2022/06/29 05:57:00;;;;;;;;;12.00;11.00;;;;;29.91;37.53;99226.44;5110943;28;9645;-71
2022/06/29 05:59:29;;;;;;;;;13.60;13.60;;;;;29.83;37.75;99220.84;5111055;28;8857;-74
2022/06/29 06:01:57;;;;;;;;;6.20;6.20;;;;;29.86;37.90;99224.13;5108497;28;8865;-72
2022/06/29 06:04:26;;;;;;;;;12.40;11.60;;;;;29.86;37.79;99221.44;5111195;28;8849;-72
2022/06/29 06:06:55;;;;;;;;;14.60;14.00;;;;;29.87;37.74;99227.69;5109938;28;8856;-73
2022/06/29 06:09:26;;;;;;;;;15.00;13.00;;;;;29.86;37.98;99226.81;5111061;28;8904;-73
2022/06/29 06:11:56;;;;;;;;;11.60;11.60;;;;;29.81;38.34;99223.69;5109154;28;8849;-75
2022/06/29 06:14:26;;;;;;;;;13.40;12.80;;;;;29.87;37.78;99217.78;5111161;28;8845;-74
2022/06/29 06:16:54;;;;;;;;;11.60;11.60;;;;;29.88;38.18;99218.63;5111179;28;8899;-73
2022/06/29 06:19:23;;;;;;;;;14.80;14.80;;;;;29.93;37.86;99219.09;5109760;28;8869;-73
2022/06/29 06:21:51;;;;;;;;;10.80;10.40;;;;;30.01;37.92;99226.50;5111742;28;8860;-77
2022/06/29 06:24:20;;;;;;;;;12.20;12.20;;;;;30.06;38.14;99217.03;5081489;28;8855;-75
2022/06/29 06:26:49;;;;;;;;;12.80;12.00;;;;;30.01;37.36;99223.78;5091249;28;8863;-75
2022/06/29 06:29:17;;;;;;;;;11.20;11.20;;;;;30.04;37.25;99221.69;5055921;28;8941;-77
2022/06/29 06:31:47;;;;;;;;;10.80;10.80;;;;;30.07;37.77;99223.25;5089428;28;8860;-76
2022/06/29 06:34:16;;;;;;;;;12.60;12.60;;;;;30.06;36.63;99230.47;5089608;28;8851;-72
2022/06/29 06:36:51;;;;;;;;;15.00;15.00;;;;;30.13;36.57;99239.72;5095932;28;9031;-73
2022/06/29 06:39:19;;;;;;;;;12.80;12.20;;;;;30.12;37.14;99235.31;5110528;28;8867;-72
2022/06/29 06:41:47;;;;;;;;;12.80;11.60;;;;;30.19;37.66;99235.66;5114823;28;8877;-73
2022/06/29 06:44:15;;;;;;;;;14.40;14.40;;;;;30.18;38.03;99235.78;5092125;28;8871;-71
2022/06/29 06:46:48;;;;;;;;;12.40;12.40;;;;;30.21;37.54;99240.88;5089405;28;8940;-73
2022/06/29 06:49:23;;;;;;;;;14.20;13.00;;;;;30.28;37.57;99236.66;5089041;28;8843;-72
2022/06/29 06:51:51;;;;;;;;;12.60;12.40;;;;;30.29;37.15;99236.53;5071104;28;8872;-72
2022/06/29 06:54:20;;;;;;;;;15.20;15.00;;;;;30.26;37.31;99235.94;5088653;28;8851;-71
2022/06/29 06:56:49;;;;;;;;;12.40;11.80;;;;;30.28;36.70;99236.66;5088697;28;8871;-72
2022/06/29 06:59:17;;;;;;;;;12.00;11.20;;;;;30.33;36.78;99239.84;5091502;28;8843;-71
2022/06/29 07:01:46;;;;;;;;;11.60;11.60;;;;;30.44;36.53;99245.13;5089598;28;8831;-71
2022/06/29 07:04:18;;;;;;;;;10.80;10.00;;;;;30.55;36.39;99240.63;5067875;28;9606;-72
2022/06/29 07:06:47;;;;;;;;;11.20;11.20;;;;;30.70;36.33;99228.53;5090869;28;8835;-72
2022/06/29 07:09:16;;;;;;;;;10.80;10.60;;;;;30.77;35.97;99231.50;5100529;28;8863;-71
2022/06/29 07:11:44;;;;;;;;;12.00;12.00;;;;;30.87;35.30;99232.34;5088477;28;8870;-71
2022/06/29 07:14:13;;;;;;;;;11.80;10.80;;;;;30.98;35.04;99231.44;5100419;28;8829;-70
2022/06/29 07:16:41;;;;;;;;;8.80;7.80;;;;;31.05;34.56;99228.03;5107586;28;8968;-71
2022/06/29 07:19:10;;;;;;;;;10.00;10.00;;;;;30.96;33.76;99226.16;5095910;28;8843;-72
2022/06/29 07:21:40;;;;;;;;;11.20;10.80;;;;;30.92;33.00;99224.75;5089245;28;8859;-73
2022/06/29 07:24:09;;;;;;;;;7.60;7.60;;;;;31.04;33.15;99234.44;5107157;28;8857;-74
2022/06/29 07:26:37;;;;;;;;;10.40;9.80;;;;;31.20;33.81;99227.63;5109117;28;8865;-71
2022/06/29 07:29:06;;;;;;;;;8.80;8.80;;;;;31.28;32.67;99223.22;5109248;28;8918;-73
2022/06/29 07:31:34;;;;;;;;;9.00;9.00;;;;;31.40;32.66;99226.66;5091777;28;8840;-73
2022/06/29 07:34:03;;;;;;;;;9.60;9.60;;;;;31.39;33.16;99224.09;5107710;28;8851;-71
2022/06/29 07:36:31;;;;;;;;;11.80;9.80;;;;;31.58;33.01;99225.97;5101297;28;8878;-73
2022/06/29 07:39:01;;;;;;;;;10.40;10.00;;;;;31.66;32.46;99232.34;5089273;28;8840;-71
2022/06/29 07:41:30;;;;;;;;;9.40;9.20;;;;;31.75;31.84;99225.22;5089034;28;8868;-71
2022/06/29 07:43:58;;;;;;;;;10.20;10.20;;;;;31.78;31.42;99227.63;5089093;28;8908;-72
2022/06/29 07:46:27;;;;;;;;;12.40;11.60;;;;;31.79;31.47;99226.63;5069784;28;8852;-72
2022/06/29 07:48:56;;;;;;;;;11.00;11.00;;;;;31.76;31.51;99226.94;5088467;28;8875;-73
2022/06/29 07:51:24;;;;;;;;;11.80;10.80;;;;;31.88;31.71;99215.97;5088894;28;8871;-71
2022/06/29 07:53:53;;;;;;;;;11.40;10.60;;;;;31.98;31.61;99220.34;5088983;28;9643;-72
2022/06/29 07:56:23;;;;;;;;;10.20;9.20;;;;;32.11;31.77;99214.66;5088958;28;8890;-73
2022/06/29 07:58:54;;;;;;;;;9.40;9.20;;;;;32.16;31.70;99211.53;5088914;28;10231;-73
2022/06/29 08:01:22;;;;;;;;;10.40;10.40;;;;;32.23;31.81;99209.91;5064987;28;8902;-71
2022/06/29 08:03:51;;;;;;;;;12.40;12.40;;;;;32.28;31.36;99213.03;5104230;28;9172;-71
2022/06/29 08:06:19;;;;;;;;;13.75;12.25;;;;;32.35;31.55;99218.69;5108381;28;8853;-73
2022/06/29 08:08:48;;;;;;;;;11.80;11.80;;;;;32.29;31.64;99217.44;5085262;28;8867;-71
2022/06/29 08:11:16;;;;;;;;;12.80;12.80;;;;;32.39;31.32;99214.69;5088226;28;8891;-72
2022/06/29 08:13:47;;;;;;;;;11.40;11.40;;;;;32.40;31.13;99221.78;5064832;28;8844;-72
2022/06/29 08:16:15;;;;;;;;;15.00;15.00;;;;;32.53;31.06;99213.34;5090616;28;8948;-76
2022/06/29 08:18:44;;;;;;;;;12.00;12.00;;;;;32.53;30.69;99214.19;5088045;28;8863;-76
2022/06/29 08:21:12;;;;;;;;;13.00;13.00;;;;;32.50;30.44;99219.91;5107156;28;8821;-77
2022/06/29 08:23:41;;;;;;;;;12.75;12.75;;;;;32.54;30.26;99210.50;5106457;28;8835;-77
2022/06/29 08:26:14;;;;;;;;;17.50;15.50;;;;;32.58;30.67;99203.81;5088559;28;8855;-76
2022/06/29 08:28:58;;;;;;;;;17.00;15.50;;;;;32.62;30.54;99199.81;5105909;28;8945;-77
2022/06/29 08:31:27;;;;;;;;;13.75;13.75;;;;;32.56;30.13;99208.50;5089085;28;8927;-78
2022/06/29 08:33:55;;;;;;;;;14.25;14.25;;;;;32.66;30.11;99210.34;5106235;28;8859;-76
2022/06/29 08:36:24;;;;;;;;;14.25;13.50;;;;;32.65;29.84;99214.88;5071705;28;8872;-76
2022/06/29 08:39:13;;;;;;;;;14.00;13.40;;;;;32.72;29.20;99215.97;5072112;28;8839;-77
2022/06/29 08:41:43;;;;;;;;;11.20;11.20;;;;;32.76;28.50;99206.59;5106008;28;8835;-78
2022/06/29 08:44:13;;;;;;;;;11.00;11.00;;;;;32.62;28.51;99204.38;5072193;28;8932;-77
2022/06/29 08:46:42;;;;;;;;;11.50;11.50;;;;;32.64;28.58;99205.91;5088600;28;8936;-79
2022/06/29 08:49:11;;;;;;;;;14.25;13.25;;;;;32.72;28.07;99207.84;5105802;28;8832;-75
2022/06/29 08:51:41;;;;;;;;;12.25;11.25;;;;;32.74;28.01;99199.63;5089092;28;8920;-78
2022/06/29 08:54:11;;;;;;;;;10.75;10.75;;;;;32.79;28.04;99205.41;5105958;28;8877;-76
2022/06/29 08:56:40;;;;;;;;;13.25;13.25;;;;;32.85;28.65;99198.56;5087822;28;8983;-76
2022/06/29 08:59:10;;;;;;;;;15.50;15.50;;;;;32.71;28.71;99199.94;5070399;28;8979;-77
2022/06/29 09:01:40;;;;;;;;;12.50;12.25;;;;;32.82;28.39;99211.38;5087095;28;8876;-76
2022/06/29 09:04:09;;;;;;;;;11.25;10.75;;;;;32.87;27.97;99202.78;5097723;28;8930;-77
2022/06/29 09:06:37;;;;;;;;;11.20;11.20;;;;;32.89;28.30;99195.38;5106507;28;8845;-77
2022/06/29 09:09:06;;;;;;;;;9.75;9.75;;;;;32.94;27.54;99198.50;5087193;28;8875;-78
2022/06/29 09:11:35;;;;;;;;;10.75;9.75;;;;;32.99;27.88;99198.03;5102504;28;8857;-76
2022/06/29 09:14:14;;;;;;;;;11.75;11.50;;;;;33.10;28.01;99196.94;5097686;28;8852;-78
2022/06/29 09:17:03;;;;;;;;;10.75;10.50;;;;;33.18;27.88;99202.47;5105275;28;8884;-79
2022/06/29 09:19:45;;;;;;;;;12.00;12.00;;;;;33.31;27.83;99194.84;5071481;28;8841;-76
2022/06/29 09:22:14;;;;;;;;;8.75;7.75;;;;;33.24;27.67;99196.44;5070579;28;10294;-76
2022/06/29 09:24:43;;;;;;;;;9.20;9.20;;;;;33.14;27.39;99196.53;5090303;28;8850;-76
2022/06/29 09:27:37;;;;;;;;;13.00;10.80;;;;;33.25;27.69;99192.72;5065234;28;8848;-76
2022/06/29 09:30:07;;;;;;;;;11.80;11.20;;;;;33.34;27.59;99194.50;5091515;28;8857;-77
2022/06/29 09:32:37;;;;;;;;;13.75;12.25;;;;;33.32;27.23;99187.56;5091702;28;9026;-78
2022/06/29 09:35:13;;;;;;;;;11.00;11.00;;;;;33.20;27.37;99186.97;5090853;28;8855;-68
2022/06/29 09:37:41;;;;;;;;;11.00;11.00;;;;;33.22;27.45;99193.06;5101201;28;8845;-69
2022/06/29 09:40:11;;;;;;;;;11.25;11.25;;;;;33.26;27.29;99190.91;5111740;28;8867;-70
2022/06/29 09:42:40;;;;;;;;;10.80;10.80;;;;;33.22;27.39;99185.78;5109154;28;8998;-69
2022/06/29 09:45:09;;;;;;;;;10.00;9.00;;;;;33.27;26.54;99190.75;5111209;28;8873;-69
2022/06/29 09:47:41;;;;;;;;;11.20;9.80;;;;;33.28;26.22;99187.03;5111693;28;8861;-66
2022/06/29 09:50:10;;;;;;;;;7.20;7.20;;;;;33.28;26.29;99188.88;5110252;28;8853;-71
2022/06/29 09:52:39;;;;;;;;;8.20;8.00;;;;;33.28;26.27;99184.31;5091424;28;8966;-69
2022/06/29 09:55:11;;;;;;;;;8.60;8.60;;;;;33.28;26.47;99178.06;5107753;28;8943;-68
2022/06/29 09:57:41;;;;;;;;;8.40;8.40;;;;;33.28;26.55;99178.06;5109819;28;9691;-70
2022/06/29 10:02:58;;;;;;;;;9.80;8.80;;;;;33.27;25.97;99174.53;5105180;28;8824;-67
2022/06/29 10:05:54;;;;;;;;;8.40;8.00;;;;;33.27;26.11;99177.22;5091209;28;9103;-70
2022/06/29 10:08:16;;;;;;;;;8.20;7.60;;;;;33.29;26.44;99171.66;5111492;28;8952;-71
2022/06/29 10:10:47;;;;;;;;;10.20;9.60;;;;;33.31;26.46;99175.91;5107228;28;8853;-70
2022/06/29 10:16:15;;;;;;;;;9.20;9.20;;;;;33.31;26.41;99169.63;5090959;28;8874;-69
2022/06/29 10:19:11;;;;;;;;;11.20;11.20;;;;;33.33;26.11;99173.91;5100807;28;8863;-68
2022/06/29 10:21:39;;;;;;;;;7.40;7.40;;;;;33.32;26.05;99163.22;5087889;28;8861;-69
2022/06/29 10:24:09;;;;;;;;;7.75;7.50;;;;;33.39;25.76;99167.84;5088089;28;8945;-69
2022/06/29 10:26:39;;;;;;;;;10.25;9.50;;;;;33.46;26.02;99156.41;5084767;28;8849;-72
2022/06/29 10:29:28;;;;;;;;;9.25;7.25;;;;;33.44;25.27;99161.13;5068577;28;9040;-71
2022/06/29 10:32:06;;;;;;;;;7.00;7.00;;;;;33.42;25.33;99158.56;5087318;28;8838;-68
2022/06/29 10:35:05;;;;;;;;;7.25;7.25;;;;;33.39;25.18;99143.53;5086676;28;8841;-67
2022/06/29 10:37:32;;;;;;;;;7.25;7.25;;;;;33.55;25.58;99147.34;5087533;28;8968;-69
2022/06/29 10:40:05;;;;;;;;;7.25;7.00;;;;;33.75;25.07;99150.75;5050313;28;9594;-68
2022/06/29 10:45:35;;;;;;;;;8.00;7.75;;;;;34.09;24.62;99134.50;5088101;28;8860;-70
2022/06/29 10:48:20;;;;;;;;;11.00;8.00;;;;;34.23;24.12;99140.34;5087326;28;8846;-67
2022/06/29 10:50:50;;;;;;;;;6.75;6.75;;;;;34.17;22.99;99136.44;5087576;28;8845;-70
2022/06/29 10:53:21;;;;;;;;;7.50;7.00;;;;;34.16;23.86;99132.91;5088746;28;8857;-75
2022/06/29 10:55:52;;;;;;;;;4.75;4.75;;;;;34.29;23.91;99140.56;5069870;28;8876;-76
2022/06/29 10:58:22;;;;;;;;;8.25;7.00;;;;;34.33;23.45;99131.09;5036865;28;8871;-76
2022/06/29 11:00:53;;;;;;;;;7.50;6.75;;;;;34.35;23.13;99129.06;5047802;28;8861;-76
2022/06/29 11:03:25;;;;;;;;;7.40;6.80;;;;;34.47;23.66;99131.47;5058673;28;8849;-74
2022/06/29 11:17:04;;;;;;;;;6.80;6.40;;;;;34.90;22.92;99126.88;5072921;28;8873;-77
2022/06/29 11:19:35;;;;;;;;;10.25;10.25;;;;;35.05;23.11;99113.47;5083031;28;8848;-75
2022/06/29 11:22:15;;;;;;;;;9.25;8.50;;;;;35.22;22.60;99119.75;5070234;28;8887;-77
2022/06/29 11:24:52;;;;;;;;;8.60;7.60;;;;;35.32;22.23;99115.88;5070830;28;8915;-77
2022/06/29 11:27:35;;;;;;;;;9.00;9.00;;;;;35.40;22.23;99106.03;5068996;28;9616;-77
2022/06/29 11:30:06;;;;;;;;;9.40;8.20;;;;;35.53;22.25;99099.06;5087648;28;8825;-77
2022/06/29 11:32:39;;;;;;;;;7.40;7.40;;;;;35.72;22.44;99097.00;5107112;28;8860;-77
2022/06/29 11:35:09;;;;;;;;;9.40;8.40;;;;;35.86;22.46;99101.72;5105925;28;8849;-78
2022/06/29 11:37:48;;;;;;;;;9.00;8.25;;;;;35.97;21.89;99086.06;5108722;28;8883;-78
2022/06/29 11:40:22;;;;;;;;;6.75;6.75;;;;;36.10;21.72;99087.19;5108568;28;8907;-75
2022/06/29 11:43:07;;;;;;;;;8.40;8.40;;;;;36.35;22.03;99073.50;5054632;28;8866;-79
2022/06/29 11:45:38;;;;;;;;;8.00;7.00;;;;;36.51;21.45;99074.47;5053847;28;8905;-78
2022/06/29 11:48:18;;;;;;;;;9.00;8.50;;;;;36.51;21.39;99069.03;5088098;28;8871;-78
2022/06/29 11:50:51;;;;;;;;;7.50;7.50;;;;;36.66;21.48;99075.41;5070473;28;8855;-76
2022/06/29 11:53:44;;;;;;;;;12.25;9.00;;;;;36.85;21.11;99065.91;5088777;28;8836;-78
2022/06/29 11:56:15;;;;;;;;;11.00;8.25;;;;;37.01;21.07;99064.91;5103818;28;8821;-76
2022/06/29 11:58:47;;;;;;;;;7.75;6.75;;;;;37.05;20.49;99067.09;5098194;28;8857;-79
2022/06/29 12:01:16;;;;;;;;;9.75;9.75;;;;;37.19;20.50;99056.47;5094732;28;8836;-76
2022/06/29 12:03:49;;;;;;;;;11.25;8.50;;;;;37.29;20.44;99048.88;5103057;28;8859;-76
2022/06/29 12:06:19;;;;;;;;;9.75;9.75;;;;;37.45;20.45;99061.50;5087411;28;8982;-75